Time;durP1;ratioP1;P1;durP2;ratioP2;P2;SDS_P1;SDS_P2;PMS_P1;PMS_P2;Temp;Humidity;BMP_temperature;BMP_pressure;BME280_temperature;BME280_humidity;BME280_pressure;Samples;Min_cycle;Max_cycle;Signal;HPM_P1;HPM_P2
2023/08/08 00:01:20;;;;;;;6.15;4.15;;;;;;;12.69;100.00;101217.44;5087699;28;20129;-85
2023/08/08 00:03:46;;;;;;;5.30;3.97;;;;;;;12.88;100.00;101213.94;5077444;28;20029;-85
2023/08/08 00:06:11;;;;;;;6.20;4.68;;;;;;;12.85;100.00;101210.81;5070918;28;20028;-85
2023/08/08 00:08:37;;;;;;;5.53;4.20;;;;;;;12.87;100.00;101198.78;5074078;28;20031;-85
2023/08/08 00:11:02;;;;;;;4.75;4.15;;;;;;;13.02;100.00;101195.06;5071824;28;20028;-85
2023/08/08 00:13:28;;;;;;;4.90;4.03;;;;;;;13.02;100.00;101189.66;5091001;28;20024;-85
2023/08/08 00:15:53;;;;;;;5.43;4.40;;;;;;;13.04;100.00;101198.41;5082368;28;20759;-85
2023/08/08 00:18:18;;;;;;;7.18;4.72;;;;;;;12.91;100.00;101201.91;5081401;28;20039;-85
2023/08/08 00:20:44;;;;;;;7.93;4.93;;;;;;;12.79;100.00;101220.56;5088767;28;20068;-85
2023/08/08 00:23:09;;;;;;;6.57;4.78;;;;;;;12.72;100.00;101217.00;5082201;28;20035;-84
2023/08/08 00:25:35;;;;;;;8.25;5.18;;;;;;;12.70;100.00;101229.91;5076863;28;20376;-85
2023/08/08 00:28:01;;;;;;;7.28;5.30;;;;;;;12.67;100.00;101220.31;5080178;28;20099;-85
2023/08/08 00:30:30;;;;;;;5.47;4.97;;;;;;;12.85;100.00;101206.25;5083149;28;20063;-86
2023/08/08 00:32:55;;;;;;;6.38;4.95;;;;;;;13.01;100.00;101205.03;5088139;28;20036;-80
2023/08/08 00:35:21;;;;;;;8.18;5.20;;;;;;;13.01;100.00;101196.94;5085855;28;20031;-84
2023/08/08 00:37:47;;;;;;;6.28;5.05;;;;;;;12.95;100.00;101202.31;5078248;28;20073;-84
2023/08/08 00:40:12;;;;;;;6.65;5.25;;;;;;;12.88;100.00;101199.59;5071708;28;20431;-84
2023/08/08 00:42:37;;;;;;;7.85;5.80;;;;;;;12.86;100.00;101191.72;5072633;28;20464;-84
2023/08/08 00:45:04;;;;;;;6.80;5.80;;;;;;;12.85;100.00;101190.06;5074454;28;20380;-80
2023/08/08 00:47:33;;;;;;;7.30;6.25;;;;;;;12.83;100.00;101191.28;5076798;28;20032;-81
2023/08/08 00:50:01;;;;;;;6.80;5.45;;;;;;;12.75;100.00;101192.28;5044614;28;20032;-81
2023/08/08 00:52:27;;;;;;;7.70;6.10;;;;;;;12.69;100.00;101187.72;5061080;28;20040;-81
2023/08/08 00:54:53;;;;;;;7.47;5.93;;;;;;;12.64;100.00;101179.38;5065435;28;20479;-81
2023/08/08 00:57:18;;;;;;;8.02;5.82;;;;;;;12.62;100.00;101184.16;5062051;28;20029;-80
2023/08/08 00:59:44;;;;;;;11.80;6.50;;;;;;;12.65;100.00;101178.34;5065102;28;20055;-80
2023/08/08 01:02:15;;;;;;;8.88;6.60;;;;;;;12.61;100.00;101172.53;5089998;28;20028;-80
2023/08/08 01:04:41;;;;;;;7.95;5.90;;;;;;;12.63;100.00;101173.13;5070788;28;20020;-80
2023/08/08 01:07:16;;;;;;;6.82;6.10;;;;;;;12.62;100.00;101178.75;5059377;28;20024;-81
2023/08/08 01:09:51;;;;;;;9.10;6.10;;;;;;;12.67;100.00;101181.69;5056421;28;20033;-80
2023/08/08 01:12:17;;;;;;;10.07;6.15;;;;;;;12.68;100.00;101172.53;5030358;28;20036;-80
2023/08/08 01:14:43;;;;;;;6.32;5.70;;;;;;;12.68;100.00;101167.97;5070240;28;20037;-80
2023/08/08 01:17:08;;;;;;;7.60;5.97;;;;;;;12.61;100.00;101160.88;5054762;28;20101;-80
2023/08/08 01:19:34;;;;;;;7.90;5.70;;;;;;;12.67;100.00;101160.06;5053686;28;20111;-80
2023/08/08 01:22:07;;;;;;;6.85;5.65;;;;;;;12.69;100.00;101161.53;5044782;28;20048;-81
2023/08/08 01:24:36;;;;;;;6.65;5.68;;;;;;;12.73;100.00;101159.25;5062253;28;20048;-80
2023/08/08 01:27:02;;;;;;;8.98;5.57;;;;;;;12.72;100.00;101162.97;5070503;28;20494;-81
2023/08/08 01:29:28;;;;;;;9.90;5.88;;;;;;;12.69;100.00;101153.44;5053031;28;20029;-81
2023/08/08 01:31:53;;;;;;;7.63;5.72;;;;;;;12.67;100.00;101146.56;5082263;28;20051;-81
2023/08/08 01:34:20;;;;;;;8.70;5.93;;;;;;;12.63;100.00;101137.19;5082759;28;20512;-80
2023/08/08 01:36:49;;;;;;;7.18;5.68;;;;;;;12.62;100.00;101140.94;5052464;28;20024;-80
2023/08/08 01:39:17;;;;;;;8.30;5.95;;;;;;;12.45;100.00;101144.00;5069572;28;20522;-81
2023/08/08 01:41:44;;;;;;;7.70;5.93;;;;;;;12.47;100.00;101144.63;5061494;28;20028;-81
2023/08/08 01:44:10;;;;;;;9.10;6.72;;;;;;;12.29;100.00;101147.88;5036420;28;20028;-81
2023/08/08 01:46:36;;;;;;;9.65;6.18;;;;;;;12.17;100.00;101158.44;5038816;28;20025;-81
2023/08/08 01:49:01;;;;;;;8.68;6.43;;;;;;;12.26;100.00;101154.53;5073840;28;20503;-81
2023/08/08 01:51:30;;;;;;;6.90;6.00;;;;;;;12.26;100.00;101146.41;5077289;28;20020;-81
2023/08/08 01:53:56;;;;;;;9.10;6.10;;;;;;;12.37;100.00;101136.06;5071050;28;20067;-81
2023/08/08 01:56:21;;;;;;;8.68;6.25;;;;;;;12.36;100.00;101126.31;5065571;28;20024;-81
2023/08/08 01:58:46;;;;;;;8.73;5.70;;;;;;;12.45;100.00;101130.50;5070970;28;20028;-81
2023/08/08 02:01:12;;;;;;;7.55;5.82;;;;;;;12.41;100.00;101127.38;5056766;28;20040;-81
2023/08/08 02:03:37;;;;;;;9.20;6.00;;;;;;;12.44;100.00;101121.56;5077254;28;20093;-80
2023/08/08 02:06:03;;;;;;;9.57;5.50;;;;;;;12.44;100.00;101120.75;5068245;28;20028;-81
2023/08/08 02:08:31;;;;;;;9.70;5.78;;;;;;;12.36;100.00;101132.56;5077197;28;20042;-80
2023/08/08 02:10:56;;;;;;;7.70;5.68;;;;;;;12.27;100.00;101139.13;5076028;28;20460;-81
2023/08/08 02:13:21;;;;;;;9.23;6.00;;;;;;;12.27;100.00;101133.75;5077313;28;20030;-81
2023/08/08 02:15:47;;;;;;;9.48;5.80;;;;;;;12.26;100.00;101135.63;5078722;28;20039;-82
2023/08/08 02:18:12;;;;;;;11.00;5.60;;;;;;;12.22;100.00;101131.66;5077354;28;20016;-82
2023/08/08 02:20:38;;;;;;;9.65;5.80;;;;;;;12.24;100.00;101118.78;5079131;28;20372;-84
2023/08/08 02:23:03;;;;;;;6.75;5.78;;;;;;;12.18;100.00;101122.28;5081008;28;20029;-86
2023/08/08 02:25:30;;;;;;;9.77;6.22;;;;;;;12.01;100.00;101108.31;5067192;28;20387;-85
2023/08/08 02:27:57;;;;;;;8.75;6.32;;;;;;;12.05;100.00;101114.13;5081606;28;20056;-86
2023/08/08 02:30:22;;;;;;;8.20;5.47;;;;;;;12.02;100.00;101115.38;5070963;28;20082;-85
2023/08/08 02:32:48;;;;;;;11.23;6.13;;;;;;;11.98;100.00;101112.25;5084905;28;20024;-86
2023/08/08 02:35:13;;;;;;;9.25;6.28;;;;;;;11.86;100.00;101116.50;5083401;28;20028;-85
2023/08/08 02:37:41;;;;;;;10.85;6.28;;;;;;;11.90;100.00;101111.56;5074492;28;20040;-85
2023/08/08 02:40:07;;;;;;;7.97;5.85;;;;;;;11.79;100.00;101110.25;5083671;28;20094;-85
2023/08/08 02:42:33;;;;;;;9.95;6.50;;;;;;;11.78;100.00;101103.19;5068459;28;20049;-86
2023/08/08 02:44:58;;;;;;;9.93;6.15;;;;;;;11.87;100.00;101101.16;5089369;28;20032;-86
2023/08/08 02:47:24;;;;;;;9.30;5.80;;;;;;;11.82;100.00;101093.69;5074885;28;20024;-86
2023/08/08 02:49:50;;;;;;;8.63;5.82;;;;;;;11.82;100.00;101096.38;5077083;28;20033;-86
2023/08/08 02:52:15;;;;;;;9.85;5.68;;;;;;;11.85;100.00;101098.66;5071642;28;20033;-86
2023/08/08 02:54:40;;;;;;;8.60;5.82;;;;;;;11.90;100.00;101098.06;5070268;28;20029;-86
2023/08/08 02:57:06;;;;;;;8.38;5.70;;;;;;;11.88;100.00;101098.25;5078089;28;20017;-86
2023/08/08 02:59:31;;;;;;;9.38;5.70;;;;;;;11.87;100.00;101090.38;5079779;28;20671;-86
2023/08/08 03:01:57;;;;;;;7.82;6.18;;;;;;;11.81;100.00;101097.41;5079220;28;20028;-87
2023/08/08 03:04:22;;;;;;;9.65;6.20;;;;;;;11.83;100.00;101089.91;5076816;28;20075;-86
2023/08/08 03:06:48;;;;;;;8.80;5.80;;;;;;;11.96;100.00;101087.31;5078239;28;20040;-86
2023/08/08 03:09:13;;;;;;;8.27;5.55;;;;;;;12.01;100.00;101085.88;5079881;28;20036;-86
2023/08/08 03:11:41;;;;;;;8.23;4.93;;;;;;;12.05;100.00;101092.56;5083357;28;20020;-87
2023/08/08 03:14:07;;;;;;;10.65;5.47;;;;;;;11.96;100.00;101084.63;5084710;28;20484;-86
2023/08/08 03:16:32;;;;;;;7.82;5.55;;;;;;;11.92;100.00;101088.72;5081401;28;20035;-86
2023/08/08 03:18:58;;;;;;;8.43;5.43;;;;;;;11.92;100.00;101077.94;5085319;28;20035;-86
2023/08/08 03:21:23;;;;;;;6.78;5.22;;;;;;;11.84;100.00;101080.78;5083672;28;20435;-86
2023/08/08 03:23:49;;;;;;;9.95;5.35;;;;;;;11.79;100.00;101078.69;5088397;28;20019;-87
2023/08/08 03:26:14;;;;;;;10.25;5.82;;;;;;;11.76;100.00;101084.50;5081595;28;20047;-87
2023/08/08 03:28:40;;;;;;;12.23;5.95;;;;;;;11.67;100.00;101083.81;5083733;28;20024;-86
2023/08/08 03:31:07;;;;;;;10.55;5.68;;;;;;;11.63;100.00;101079.88;5090725;28;20448;-86
2023/08/08 03:33:32;;;;;;;9.93;6.03;;;;;;;11.59;100.00;101069.66;5069439;28;20024;-87
2023/08/08 03:35:59;;;;;;;8.75;5.50;;;;;;;11.62;100.00;101082.75;5070593;28;20025;-86
2023/08/08 03:38:24;;;;;;;7.50;5.30;;;;;;;11.60;100.00;101080.28;5075756;28;20426;-86
2023/08/08 03:40:50;;;;;;;8.70;5.28;;;;;;;11.66;100.00;101071.38;5082497;28;20024;-87
2023/08/08 03:43:17;;;;;;;7.75;5.18;;;;;;;11.65;100.00;101080.47;5105302;28;20048;-87
2023/08/08 03:45:44;;;;;;;9.98;5.65;;;;;;;11.63;100.00;101081.72;5085965;28;20090;-87
2023/08/08 03:48:09;;;;;;;8.30;5.05;;;;;;;11.61;100.00;101075.69;5086228;28;20036;-86
2023/08/08 03:50:36;;;;;;;7.60;5.28;;;;;;;11.66;100.00;101082.16;5096517;28;20035;-87
2023/08/08 03:53:01;;;;;;;9.57;5.80;;;;;;;11.55;100.00;101074.63;5085709;28;20020;-86
2023/08/08 03:55:27;;;;;;;8.13;5.50;;;;;;;11.52;100.00;101083.94;5080446;28;20028;-87
2023/08/08 03:57:52;;;;;;;8.88;5.20;;;;;;;11.45;100.00;101085.75;5085935;28;20036;-86
2023/08/08 04:00:18;;;;;;;8.90;5.55;;;;;;;11.60;100.00;101084.81;5079140;28;20048;-88
2023/08/08 04:02:43;;;;;;;7.45;5.13;;;;;;;11.60;100.00;101080.28;5083732;28;20025;-87
2023/08/08 04:05:08;;;;;;;8.43;5.30;;;;;;;11.61;100.00;101073.00;5069635;28;20072;-87
2023/08/08 04:07:34;;;;;;;7.97;5.50;;;;;;;11.61;100.00;101071.16;5072593;28;20044;-87
2023/08/08 04:09:59;;;;;;;8.15;5.32;;;;;;;11.70;100.00;101068.28;5082377;28;20032;-83
2023/08/08 04:12:25;;;;;;;8.18;5.45;;;;;;;11.72;100.00;101061.66;5075401;28;20056;-89
2023/08/08 04:14:53;;;;;;;9.30;5.55;;;;;;;11.74;100.00;101059.56;5074315;28;20024;-90
2023/08/08 04:17:19;;;;;;;11.10;5.63;;;;;;;11.68;100.00;101061.22;5073386;28;20020;-80
2023/08/08 04:19:44;;;;;;;8.48;5.72;;;;;;;11.70;100.00;101069.13;5077884;28;20024;-84
2023/08/08 04:22:10;;;;;;;13.43;5.95;;;;;;;11.59;100.00;101062.41;5070107;28;20048;-84
2023/08/08 04:24:35;;;;;;;9.13;6.20;;;;;;;11.65;100.00;101072.41;5078795;28;20475;-83
2023/08/08 04:27:05;;;;;;;8.48;6.07;;;;;;;11.67;100.00;101064.94;5076929;28;20031;-80
2023/08/08 04:29:30;;;;;;;8.88;6.18;;;;;;;11.68;100.00;101072.00;5070594;28;20132;-81
2023/08/08 04:31:56;;;;;;;9.88;6.50;;;;;;;11.72;100.00;101067.06;5072227;28;20028;-81
2023/08/08 04:34:21;;;;;;;10.40;6.40;;;;;;;11.77;100.00;101066.47;5073279;28;20341;-82
2023/08/08 04:36:49;;;;;;;10.25;6.68;;;;;;;11.80;100.00;101066.06;5077737;28;20031;-81
2023/08/08 04:39:15;;;;;;;10.93;6.80;;;;;;;11.79;100.00;101069.78;5087613;28;20463;-81
2023/08/08 04:41:40;;;;;;;8.80;6.60;;;;;;;11.85;100.00;101066.28;5078052;28;20039;-81
2023/08/08 04:44:05;;;;;;;11.13;6.65;;;;;;;11.97;100.00;101070.09;5085790;28;20078;-81
2023/08/08 04:46:31;;;;;;;15.32;7.28;;;;;;;12.08;100.00;101070.56;5072520;28;20078;-82
2023/08/08 04:48:56;;;;;;;12.98;6.63;;;;;;;12.15;100.00;101068.75;5077495;28;20420;-82
2023/08/08 04:51:22;;;;;;;9.57;6.80;;;;;;;12.18;100.00;101071.00;5084817;28;20644;-82
2023/08/08 04:53:47;;;;;;;12.48;6.93;;;;;;;12.17;100.00;101058.56;5090262;28;20024;-81
2023/08/08 04:56:13;;;;;;;10.57;6.97;;;;;;;12.20;100.00;101057.31;5073362;28;20025;-81
2023/08/08 04:58:38;;;;;;;10.20;7.05;;;;;;;12.22;100.00;101057.97;5089902;28;20131;-81
2023/08/08 05:01:04;;;;;;;13.23;7.63;;;;;;;12.27;100.00;101059.00;5077259;28;20036;-81
2023/08/08 05:03:29;;;;;;;13.60;7.25;;;;;;;12.28;100.00;101059.81;5077051;28;20024;-81
2023/08/08 05:05:54;;;;;;;14.82;7.35;;;;;;;12.30;100.00;101048.84;5081223;28;20028;-81
2023/08/08 05:08:21;;;;;;;15.25;7.70;;;;;;;12.32;100.00;101049.47;5057857;28;20033;-81
2023/08/08 05:10:46;;;;;;;11.93;7.55;;;;;;;12.37;100.00;101052.38;5079064;28;20028;-82
2023/08/08 05:13:12;;;;;;;14.27;7.68;;;;;;;12.44;100.00;101064.84;5087584;28;20051;-81
2023/08/08 05:15:38;;;;;;;11.43;7.35;;;;;;;12.42;100.00;101061.56;5094820;28;20119;-82
2023/08/08 05:18:03;;;;;;;12.95;7.45;;;;;;;12.53;100.00;101057.41;5083564;28;20027;-81
2023/08/08 05:20:29;;;;;;;12.52;7.50;;;;;;;12.55;100.00;101066.13;5085247;28;20039;-83
2023/08/08 05:22:56;;;;;;;12.23;7.80;;;;;;;12.51;100.00;101062.19;5086198;28;20112;-81
2023/08/08 05:25:21;;;;;;;12.88;7.30;;;;;;;12.64;100.00;101061.38;5093394;28;20039;-81
2023/08/08 05:27:48;;;;;;;12.85;7.10;;;;;;;12.76;100.00;101060.78;5084693;28;20028;-82
2023/08/08 05:30:13;;;;;;;11.55;7.40;;;;;;;12.74;100.00;101060.97;5091648;28;20242;-82
2023/08/08 05:32:39;;;;;;;14.18;7.85;;;;;;;12.66;100.00;101055.78;5083774;28;20204;-81
2023/08/08 05:35:05;;;;;;;11.30;7.05;;;;;;;12.82;100.00;101049.97;5058224;28;20455;-82
2023/08/08 05:37:30;;;;;;;12.68;8.23;;;;;;;12.78;100.00;101048.72;5083686;28;20077;-81
2023/08/08 05:39:59;;;;;;;13.50;7.35;;;;;;;12.91;100.00;101053.28;5076104;28;20089;-82
2023/08/08 05:42:24;;;;;;;11.00;7.25;;;;;;;12.87;100.00;101052.88;5064183;28;20028;-82
2023/08/08 05:44:50;;;;;;;12.93;7.25;;;;;;;13.01;100.00;101048.28;5061553;28;20134;-82
2023/08/08 05:47:15;;;;;;;14.15;7.80;;;;;;;12.98;100.00;101058.69;5088686;28;20088;-82
2023/08/08 05:49:42;;;;;;;14.45;7.88;;;;;;;13.13;100.00;101056.59;5075609;28;20063;-81
2023/08/08 05:52:07;;;;;;;12.40;7.57;;;;;;;13.23;100.00;101055.38;5081198;28;20112;-81
2023/08/08 05:54:33;;;;;;;12.15;7.32;;;;;;;13.28;100.00;101058.25;5091033;28;20090;-83
2023/08/08 05:56:58;;;;;;;12.30;7.57;;;;;;;13.33;100.00;101053.88;5089854;28;20024;-82
2023/08/08 05:59:33;;;;;;;12.05;7.25;;;;;;;13.36;100.00;101055.34;5097775;28;20130;-81
2023/08/08 06:01:58;;;;;;;13.30;7.90;;;;;;;13.38;100.00;101053.25;5083945;28;20031;-82
2023/08/08 06:04:25;;;;;;;13.77;7.55;;;;;;;13.37;100.00;101056.16;5075245;28;20029;-83
2023/08/08 06:06:53;;;;;;;13.20;7.78;;;;;;;13.38;100.00;101058.66;5076667;28;20024;-82
2023/08/08 06:09:19;;;;;;;12.90;8.35;;;;;;;13.43;100.00;101061.59;5091630;28;20024;-82
2023/08/08 06:11:44;;;;;;;10.15;7.40;;;;;;;13.62;100.00;101075.28;5076573;28;20499;-82
2023/08/08 06:14:10;;;;;;;14.10;7.65;;;;;;;13.61;100.00;101065.50;5082981;28;20586;-82
2023/08/08 06:16:39;;;;;;;11.80;7.60;;;;;;;13.60;100.00;101077.38;5083305;28;20376;-81
2023/08/08 06:19:05;;;;;;;11.82;7.43;;;;;;;13.66;100.00;101076.53;5080870;28;20114;-82
2023/08/08 06:21:34;;;;;;;15.55;8.70;;;;;;;13.67;100.00;101080.09;5069751;28;20398;-81
2023/08/08 06:23:59;;;;;;;15.10;7.90;;;;;;;13.80;100.00;101077.31;5071117;28;20016;-82
2023/08/08 06:26:25;;;;;;;11.75;7.30;;;;;;;13.94;100.00;101078.13;5078674;28;20536;-82
2023/08/08 06:28:51;;;;;;;12.43;7.28;;;;;;;14.16;100.00;101081.34;5073189;28;20044;-82
2023/08/08 06:31:18;;;;;;;14.55;7.32;;;;;;;13.97;100.00;101084.97;5079930;28;20020;-82
2023/08/08 06:33:49;;;;;;;10.32;7.55;;;;;;;14.04;100.00;101075.78;5080064;28;20115;-82
2023/08/08 06:36:15;;;;;;;15.40;8.70;;;;;;;14.15;100.00;101082.41;5087157;28;20032;-81
2023/08/08 06:38:41;;;;;;;11.65;7.40;;;;;;;14.09;100.00;101078.69;5077445;28;20028;-81
2023/08/08 06:41:06;;;;;;;12.65;8.10;;;;;;;13.74;100.00;101084.44;5083384;28;20042;-81
2023/08/08 06:43:31;;;;;;;12.50;7.50;;;;;;;13.73;100.00;101087.31;5090730;28;20065;-81
2023/08/08 06:45:57;;;;;;;12.52;8.23;;;;;;;13.59;100.00;101079.25;5072834;28;20024;-82
2023/08/08 06:48:22;;;;;;;13.98;8.75;;;;;;;13.60;100.00;101082.78;5073196;28;20032;-82
2023/08/08 06:50:48;;;;;;;13.45;7.75;;;;;;;14.01;100.00;101083.50;5083740;28;20016;-81
2023/08/08 06:53:22;;;;;;;14.48;8.35;;;;;;;14.00;100.00;101082.66;5070985;28;20040;-82
2023/08/08 06:55:47;;;;;;;11.45;7.47;;;;;;;14.12;100.00;101090.13;5065663;28;20016;-82
2023/08/08 06:58:13;;;;;;;14.43;8.30;;;;;;;14.26;100.00;101091.72;5074916;28;20039;-82
2023/08/08 07:00:41;;;;;;;15.05;7.93;;;;;;;14.64;100.00;101092.75;5082605;28;20048;-82
2023/08/08 07:03:06;;;;;;;11.82;7.65;;;;;;;14.48;97.80;101096.81;5080853;28;20044;-82
2023/08/08 07:05:32;;;;;;;11.68;7.38;;;;;;;14.69;97.55;101088.38;5084261;28;20044;-82
2023/08/08 07:07:57;;;;;;;12.13;7.60;;;;;;;15.83;94.17;101089.25;5082510;28;20111;-82
2023/08/08 07:10:24;;;;;;;12.05;7.53;;;;;;;17.64;82.38;101090.34;5069008;28;20082;-82
2023/08/08 07:12:49;;;;;;;9.93;6.20;;;;;;;19.09;74.23;101083.06;5078641;28;20051;-82
2023/08/08 07:15:15;;;;;;;13.80;6.60;;;;;;;20.17;69.29;101085.63;5080974;28;20044;-82
2023/08/08 07:17:40;;;;;;;11.43;5.38;;;;;;;21.35;63.20;101094.09;5081591;28;20365;-82
2023/08/08 07:20:13;;;;;;;11.20;5.72;;;;;;;20.24;65.26;101092.53;5082236;28;20043;-82
2023/08/08 07:22:38;;;;;;;10.93;5.78;;;;;;;20.32;65.45;101087.72;5072435;28;20028;-83
2023/08/08 07:25:05;;;;;;;8.10;4.88;;;;;;;21.78;60.85;101085.88;5081801;28;20032;-83
2023/08/08 07:27:31;;;;;;;10.48;5.32;;;;;;;20.88;64.80;101084.72;5078944;28;20456;-83
2023/08/08 07:29:56;;;;;;;7.35;5.07;;;;;;;21.94;60.21;101078.56;5070281;28;20028;-82
2023/08/08 07:32:24;;;;;;;6.15;4.10;;;;;;;21.93;58.95;101080.47;5077672;28;20043;-83
2023/08/08 07:34:50;;;;;;;10.40;3.80;;;;;;;22.60;55.46;101089.97;5083760;28;20032;-83
2023/08/08 07:37:15;;;;;;;7.45;3.50;;;;;;;21.98;59.21;101087.88;5074652;28;20139;-83
2023/08/08 07:39:41;;;;;;;9.55;3.65;;;;;;;21.51;60.04;101078.59;5077173;28;20028;-83
2023/08/08 07:42:06;;;;;;;5.28;3.10;;;;;;;22.50;57.18;101088.88;5071431;28;20025;-83
2023/08/08 07:44:34;;;;;;;7.10;3.08;;;;;;;23.58;54.77;101088.00;5079992;28;20036;-82
2023/08/08 07:46:59;;;;;;;6.07;2.90;;;;;;;23.83;50.33;101077.22;5081655;28;20028;-83
2023/08/08 07:49:25;;;;;;;7.07;2.60;;;;;;;24.38;50.11;101077.25;5073775;28;20036;-83
2023/08/08 07:51:50;;;;;;;5.82;2.50;;;;;;;24.17;48.57;101071.06;5068370;28;20104;-83
2023/08/08 07:54:16;;;;;;;5.93;2.47;;;;;;;22.01;53.47;101079.13;5085594;28;20024;-83
2023/08/08 07:56:42;;;;;;;7.70;2.70;;;;;;;21.11;58.60;101080.78;5082138;28;20028;-83
2023/08/08 07:59:09;;;;;;;6.63;2.58;;;;;;;21.49;59.30;101067.91;5086646;28;20219;-83
2023/08/08 08:01:34;;;;;;;4.47;2.25;;;;;;;21.89;57.01;101071.13;5081447;28;20048;-83
2023/08/08 08:04:03;;;;;;;4.47;2.33;;;;;;;22.65;53.62;101074.38;5082636;28;20013;-83
2023/08/08 08:06:28;;;;;;;5.13;2.17;;;;;;;21.94;52.39;101073.88;5085345;28;20039;-82
2023/08/08 08:08:56;;;;;;;5.28;2.05;;;;;;;22.03;53.20;101071.44;5074758;28;20025;-83
2023/08/08 08:11:22;;;;;;;4.65;2.30;;;;;;;21.63;53.78;101068.28;5081870;28;20077;-82
2023/08/08 08:13:47;;;;;;;5.22;2.17;;;;;;;20.93;56.23;101075.72;5075349;28;20024;-83
2023/08/08 08:16:12;;;;;;;7.90;2.00;;;;;;;20.94;54.56;101078.22;5079845;28;20489;-82
2023/08/08 08:18:38;;;;;;;7.55;2.17;;;;;;;20.87;56.33;101070.22;5081734;28;20093;-83
2023/08/08 08:21:04;;;;;;;6.55;2.40;;;;;;;20.26;55.89;101073.16;5089201;28;20470;-83
2023/08/08 08:23:31;;;;;;;6.90;2.28;;;;;;;20.58;57.11;101072.41;5081661;28;20034;-83
2023/08/08 08:25:57;;;;;;;5.60;2.15;;;;;;;21.78;53.96;101073.03;5091599;28;20032;-82
2023/08/08 08:28:22;;;;;;;4.35;2.17;;;;;;;22.17;51.76;101069.03;5079709;28;20039;-83
2023/08/08 08:30:47;;;;;;;5.30;2.45;;;;;;;22.02;51.97;101069.00;5084280;28;20100;-83
2023/08/08 08:33:13;;;;;;;5.10;2.10;;;;;;;21.87;51.24;101067.84;5085410;28;20034;-83
2023/08/08 08:35:38;;;;;;;5.15;1.77;;;;;;;21.82;52.41;101065.06;5084464;28;20024;-83
2023/08/08 08:38:04;;;;;;;3.92;1.65;;;;;;;22.39;48.72;101068.00;5075384;28;20040;-83
2023/08/08 08:40:30;;;;;;;3.28;1.60;;;;;;;22.43;49.17;101060.88;5081724;28;20543;-83
2023/08/08 08:42:56;;;;;;;5.45;1.77;;;;;;;23.47;45.39;101054.25;5072066;28;20032;-83
2023/08/08 08:45:21;;;;;;;3.50;1.70;;;;;;;23.64;45.72;101047.63;5061619;28;20020;-83
2023/08/08 08:47:48;;;;;;;4.82;2.00;;;;;;;24.12;45.60;101058.13;5044026;28;20021;-84
2023/08/08 08:50:15;;;;;;;4.35;1.80;;;;;;;24.50;44.49;101057.63;5069318;28;20048;-84
2023/08/08 08:52:40;;;;;;;5.55;1.88;;;;;;;23.88;47.06;101055.19;5057951;28;20020;-83
2023/08/08 08:55:06;;;;;;;3.65;1.90;;;;;;;23.39;47.05;101046.59;5047827;28;20154;-84
2023/08/08 08:57:32;;;;;;;5.07;1.60;;;;;;;23.75;46.30;101057.47;5079775;28;20021;-84
2023/08/08 08:59:58;;;;;;;4.30;1.70;;;;;;;23.68;46.42;101051.44;5047118;28;20104;-83
2023/08/08 09:02:23;;;;;;;4.40;1.58;;;;;;;23.52;46.05;101056.16;5084255;28;20023;-84
2023/08/08 09:04:49;;;;;;;5.25;1.42;;;;;;;22.35;46.79;101053.97;5067263;28;20125;-84
2023/08/08 09:07:14;;;;;;;2.95;1.42;;;;;;;22.74;46.92;101060.94;5078936;28;20024;-84
2023/08/08 09:09:42;;;;;;;2.88;1.42;;;;;;;22.44;46.01;101062.53;5056997;28;20021;-84
2023/08/08 09:12:08;;;;;;;2.35;1.70;;;;;;;21.98;46.96;101051.44;5064022;28;20024;-84
2023/08/08 09:14:33;;;;;;;4.55;1.67;;;;;;;21.68;49.36;101059.25;5087086;28;20024;-83
2023/08/08 09:16:59;;;;;;;4.13;1.80;;;;;;;21.31;50.67;101054.63;5085527;28;20463;-83
2023/08/08 09:19:24;;;;;;;1.98;1.23;;;;;;;22.11;47.92;101070.09;5086048;28;20074;-84
2023/08/08 09:21:51;;;;;;;3.70;1.50;;;;;;;21.85;46.33;101059.06;5086305;28;20476;-85
2023/08/08 09:24:17;;;;;;;1.83;1.20;;;;;;;21.79;44.71;101055.50;5096067;28;20024;-84
2023/08/08 09:26:42;;;;;;;6.50;1.35;;;;;;;21.92;46.59;101061.56;5081144;28;20035;-84
2023/08/08 09:29:08;;;;;;;3.03;1.10;;;;;;;22.95;44.39;101056.25;5075632;28;20067;-84
2023/08/08 09:31:34;;;;;;;2.88;1.20;;;;;;;24.09;42.09;101060.63;5078173;28;20051;-84
2023/08/08 09:34:00;;;;;;;3.55;1.20;;;;;;;22.78;43.72;101072.16;5086215;28;20023;-85
2023/08/08 09:36:26;;;;;;;3.42;1.20;;;;;;;23.08;46.74;101070.50;5076316;28;20093;-84
2023/08/08 09:38:53;;;;;;;2.35;1.35;;;;;;;24.03;42.96;101079.91;5083552;28;20024;-84
2023/08/08 09:41:20;;;;;;;3.35;1.10;;;;;;;22.97;43.66;101072.44;5082540;28;20039;-84
2023/08/08 09:43:45;;;;;;;2.17;1.20;;;;;;;21.65;44.44;101077.06;5112374;22;20062;-84
2023/08/08 09:46:11;;;;;;;3.13;1.42;;;;;;;21.63;45.09;101075.66;5043287;28;20120;-84
2023/08/08 09:48:36;;;;;;;3.20;1.30;;;;;;;21.36;45.93;101065.63;5026058;28;20033;-83
2023/08/08 09:51:02;;;;;;;2.22;1.00;;;;;;;21.27;46.02;101073.53;5008037;28;20051;-84
2023/08/08 09:53:27;;;;;;;2.58;1.20;;;;;;;21.41;49.71;101067.56;5052445;28;20440;-84
2023/08/08 09:55:56;;;;;;;1.40;1.00;;;;;;;21.94;45.98;101073.06;5040686;28;20037;-83
2023/08/08 09:58:22;;;;;;;2.95;1.10;;;;;;;20.48;47.22;101066.81;5025341;28;20031;-81
2023/08/08 10:00:50;;;;;;;2.83;1.10;;;;;;;19.83;49.07;101068.28;5038983;28;20025;-83
2023/08/08 10:03:16;;;;;;;3.60;1.20;;;;;;;20.18;48.62;101071.72;5038824;28;20033;-83
2023/08/08 10:05:42;;;;;;;1.90;1.10;;;;;;;21.49;48.13;101078.84;5042762;28;20028;-83
2023/08/08 10:08:08;;;;;;;1.88;1.20;;;;;;;22.33;45.64;101078.09;5025443;28;20032;-83
2023/08/08 10:10:33;;;;;;;1.92;1.00;;;;;;;21.51;45.37;101052.03;5026036;28;20048;-83
2023/08/08 10:12:59;;;;;;;2.55;0.90;;;;;;;20.96;47.13;101069.72;5032227;28;20388;-83
2023/08/08 10:15:27;;;;;;;2.72;1.13;;;;;;;21.09;46.69;101068.47;5023119;28;20032;-83
2023/08/08 10:17:57;;;;;;;2.70;1.10;;;;;;;21.88;45.49;101069.50;4998666;28;20025;-81
2023/08/08 10:20:26;;;;;;;1.77;1.08;;;;;;;22.17;43.77;101071.78;5041659;28;20063;-81
2023/08/08 10:22:52;;;;;;;1.55;0.90;;;;;;;21.72;45.51;101065.84;5042678;28;20314;-82
2023/08/08 10:25:25;;;;;;;1.73;1.00;;;;;;;21.29;45.98;101063.13;5044194;28;20334;-81
2023/08/08 10:28:01;;;;;;;2.20;1.10;;;;;;;21.96;43.75;101071.72;5038593;28;20421;-81
2023/08/08 10:30:26;;;;;;;3.45;1.38;;;;;;;22.21;43.18;101064.66;5022547;28;20057;-82
2023/08/08 10:32:52;;;;;;;1.48;0.93;;;;;;;22.00;42.80;101065.69;5021739;28;20052;-82
2023/08/08 10:35:17;;;;;;;2.95;1.20;;;;;;;22.97;41.80;101066.94;5037108;28;20036;-82
2023/08/08 10:37:53;;;;;;;2.72;1.10;;;;;;;23.04;41.61;101072.16;5039922;28;20025;-81
2023/08/08 10:40:18;;;;;;;1.70;1.10;;;;;;;24.25;40.59;101064.13;5037138;28;20032;-82
2023/08/08 10:42:44;;;;;;;2.20;1.02;;;;;;;24.11;38.99;101066.66;5031574;28;20037;-82
2023/08/08 10:45:12;;;;;;;1.27;0.70;;;;;;;23.43;39.75;101064.16;5022744;28;20196;-82
2023/08/08 10:47:37;;;;;;;1.40;0.90;;;;;;;23.06;42.72;101075.44;5030857;28;20041;-82
2023/08/08 10:50:11;;;;;;;1.45;1.10;;;;;;;22.46;43.59;101068.56;5021539;28;20035;-81
2023/08/08 10:52:51;;;;;;;1.48;1.15;;;;;;;22.38;44.34;101077.31;5043947;28;20025;-82
2023/08/08 10:55:32;;;;;;;2.00;1.17;;;;;;;22.15;43.77;101062.19;5037209;28;20389;-81
2023/08/08 10:58:07;;;;;;;1.83;1.00;;;;;;;22.36;43.25;101066.59;5044858;28;20052;-81
2023/08/08 11:00:39;;;;;;;1.90;1.00;;;;;;;22.48;43.45;101058.16;5051437;28;20445;-81
2023/08/08 11:03:06;;;;;;;2.00;1.10;;;;;;;21.65;44.79;101057.03;5035770;28;20030;-81
2023/08/08 11:05:35;;;;;;;1.60;1.15;;;;;;;22.00;45.60;101057.47;5040585;28;20056;-81
2023/08/08 11:08:01;;;;;;;1.88;0.90;;;;;;;22.95;41.17;101058.16;5040502;28;20022;-81
2023/08/08 11:10:30;;;;;;;2.78;0.98;;;;;;;21.83;43.83;101050.28;5042650;28;20366;-81
2023/08/08 11:13:04;;;;;;;1.85;1.02;;;;;;;20.54;45.38;101052.09;5061577;28;20025;-81